Time;durP1;ratioP1;P1;durP2;ratioP2;P2;SDS_P1;SDS_P2;PMS_P1;PMS_P2;Temp;Humidity;BMP_temperature;BMP_pressure;BME280_temperature;BME280_humidity;BME280_pressure;Samples;Min_cycle;Max_cycle;Signal;HPM_P1;HPM_P2
2022/01/22 00:01:25;;;;;;;0.40;0.40;;;;;;;-0.80;57.22;100283.97;4362339;32;33878;-75
2022/01/22 00:03:53;;;;;;;0.40;0.40;;;;;;;-0.35;55.71;100283.56;4362546;32;34850;-72
2022/01/22 00:06:20;;;;;;;0.40;0.40;;;;;;;-0.30;55.63;100278.59;4362434;32;33666;-71
2022/01/22 00:08:48;;;;;;;0.40;0.40;;;;;;;-0.52;56.00;100282.75;4362328;32;33820;-74
2022/01/22 00:11:16;;;;;;;1.00;1.00;;;;;;;-0.92;56.95;100283.47;4362371;32;34291;-75
2022/01/22 00:16:29;;;;;;;3.47;1.62;;;;;;;-0.55;55.53;100275.06;4362500;32;34381;-76
2022/01/22 00:19:01;;;;;;;5.22;2.15;;;;;;;-0.95;56.64;100281.97;4362265;32;34785;-70
2022/01/22 00:21:29;;;;;;;3.67;2.08;;;;;;;-0.89;55.67;100275.13;4362013;32;35151;-69
2022/01/22 00:24:01;;;;;;;5.50;2.20;;;;;;;-0.78;56.20;100276.66;4362270;32;34954;-70
2022/01/22 00:26:28;;;;;;;3.75;2.00;;;;;;;-0.48;54.98;100270.72;4362098;32;33782;-70
2022/01/22 00:28:56;;;;;;;3.75;1.92;;;;;;;-0.49;55.24;100279.75;4361922;32;34096;-70
2022/01/22 00:31:23;;;;;;;0.40;0.40;;;;;;;-0.33;54.21;100284.25;4362110;32;35240;-72
2022/01/22 00:33:51;;;;;;;5.22;1.80;;;;;;;-0.38;54.13;100277.75;4362039;32;35019;-71
2022/01/22 00:36:19;;;;;;;3.90;1.98;;;;;;;-0.16;54.10;100271.78;4361774;32;34359;-69
2022/01/22 00:38:46;;;;;;;1.00;0.85;;;;;;;-0.48;54.71;100267.25;4360525;32;33594;-77
2022/01/22 00:41:13;;;;;;;2.15;1.60;;;;;;;-0.27;54.63;100259.59;4362101;32;34286;-69
2022/01/22 00:43:41;;;;;;;0.50;0.50;;;;;;;-0.46;54.81;100265.25;4361720;32;34930;-69
2022/01/22 00:46:08;;;;;;;4.32;1.87;;;;;;;-0.06;53.77;100274.28;4359312;32;80381;-69
2022/01/22 00:48:36;;;;;;;2.92;1.50;;;;;;;-0.11;54.02;100264.13;4361887;32;33986;-70
2022/01/22 00:51:04;;;;;;;5.32;1.65;;;;;;;-0.09;54.09;100261.28;4361593;32;34231;-69
2022/01/22 00:53:32;;;;;;;4.28;1.52;;;;;;;-0.34;54.75;100258.59;4361991;32;34985;-72
2022/01/22 00:55:59;;;;;;;0.40;0.40;;;;;;;-0.08;54.33;100255.78;4361798;32;34509;-69
2022/01/22 00:58:27;;;;;;;0.43;0.43;;;;;;;0.47;52.61;100253.38;4361587;32;33798;-76
2022/01/22 01:00:55;;;;;;;0.50;0.50;;;;;;;0.23;53.08;100246.25;4360585;32;34166;-69
2022/01/22 01:03:23;;;;;;;3.28;1.70;;;;;;;0.29;53.33;100241.06;4361653;32;34101;-67
2022/01/22 01:05:50;;;;;;;3.65;1.70;;;;;;;0.77;51.78;100238.41;4363658;32;33434;-69
2022/01/22 01:08:18;;;;;;;2.95;1.80;;;;;;;0.55;52.01;100232.00;4362767;32;34000;-76
2022/01/22 01:10:48;;;;;;;4.47;1.90;;;;;;;0.38;53.54;100240.03;4364034;32;34100;-75
2022/01/22 01:13:16;;;;;;;2.22;1.70;;;;;;;0.51;52.88;100228.00;4363756;32;34080;-74
2022/01/22 01:16:03;;;;;;;0.47;0.47;;;;;;;0.51;52.87;100218.12;4363667;32;34536;-69
2022/01/22 01:32:36;;;;;;;0.50;0.50;;;;;;;0.47;53.69;100162.59;4363871;32;34154;-70
2022/01/22 01:35:07;;;;;;;0.40;0.40;;;;;;;0.39;54.09;100158.97;4363793;32;34901;-69
2022/01/22 01:37:34;;;;;;;4.05;1.80;;;;;;;0.13;54.71;100153.88;4363657;32;33843;-69
2022/01/22 01:40:05;;;;;;;0.40;0.40;;;;;;;0.18;54.86;100150.69;4363509;32;33829;-70
2022/01/22 01:42:44;;;;;;;3.58;1.60;;;;;;;0.43;53.96;100153.25;4362179;32;34047;-70
2022/01/22 01:45:12;;;;;;;2.22;1.37;;;;;;;0.20;54.88;100144.19;4363500;32;34052;-70
2022/01/22 01:47:42;;;;;;;2.25;1.40;;;;;;;0.25;54.88;100141.00;4363626;32;34522;-69
2022/01/22 01:50:10;;;;;;;2.03;1.42;;;;;;;0.64;53.95;100129.47;4363475;32;33955;-69
2022/01/22 01:52:53;;;;;;;3.75;1.70;;;;;;;0.74;53.74;100121.25;4363681;32;34265;-70
2022/01/22 01:55:33;;;;;;;0.40;0.40;;;;;;;0.62;53.98;100102.13;4363821;32;33849;-76
2022/01/22 01:58:04;;;;;;;3.42;1.58;;;;;;;0.72;54.12;100109.91;4363528;32;33691;-70
2022/01/22 02:00:34;;;;;;;2.75;1.70;;;;;;;0.50;54.26;100090.19;4363567;32;34928;-69
2022/01/22 02:03:03;;;;;;;0.40;0.40;;;;;;;0.44;54.58;100083.69;4363611;32;35058;-69
2022/01/22 02:05:33;;;;;;;0.50;0.50;;;;;;;0.58;53.82;100084.78;4363585;32;33848;-69
2022/01/22 02:08:00;;;;;;;2.97;1.40;;;;;;;0.80;53.10;100075.16;4362217;32;33654;-69
2022/01/22 02:10:32;;;;;;;0.47;0.47;;;;;;;0.51;53.93;100057.97;4362008;32;34000;-69
2022/01/22 02:13:41;;;;;;;4.25;1.40;;;;;;;0.48;53.43;100061.00;4363275;32;34210;-76
2022/01/22 02:24:11;;;;;;;2.80;1.35;;;;;;;0.75;52.36;100054.28;4363282;32;35122;-69
2022/01/22 02:26:45;;;;;;;3.87;1.35;;;;;;;0.82;51.67;100046.41;4362139;32;34270;-70
2022/01/22 02:29:13;;;;;;;0.40;0.40;;;;;;;0.54;52.62;100044.28;4363487;32;33391;-69
2022/01/22 02:31:55;;;;;;;0.40;0.40;;;;;;;0.90;51.86;100042.84;4363508;32;34542;-69
2022/01/22 02:34:41;;;;;;;0.43;0.43;;;;;;;0.96;51.82;100037.63;4362371;32;34328;-69
2022/01/22 02:37:13;;;;;;;2.08;1.15;;;;;;;0.89;51.69;100035.88;4362955;32;34970;-70
2022/01/22 02:39:47;;;;;;;2.72;1.35;;;;;;;0.75;52.21;100046.28;4363308;32;34457;-75
2022/01/22 02:42:15;;;;;;;1.70;1.30;;;;;;;0.86;51.70;100021.00;4363153;32;33937;-69
2022/01/22 02:44:46;;;;;;;3.92;1.62;;;;;;;1.06;51.41;100041.88;4362855;32;35202;-69
2022/01/22 02:47:16;;;;;;;0.50;0.50;;;;;;;0.83;52.22;100037.41;4363450;32;34116;-69
2022/01/22 02:49:43;;;;;;;0.55;0.55;;;;;;;0.73;51.90;100034.94;4363171;32;33691;-70
2022/01/22 02:52:11;;;;;;;0.40;0.40;;;;;;;0.32;53.13;100029.84;4363378;32;33607;-69
2022/01/22 02:54:39;;;;;;;3.62;1.35;;;;;;;0.43;53.19;100028.62;4363384;32;33879;-75
2022/01/22 02:57:10;;;;;;;0.62;0.50;;;;;;;0.48;52.89;100046.81;4363053;32;34125;-69
2022/01/22 02:59:40;;;;;;;0.40;0.40;;;;;;;0.63;52.55;100031.69;4363277;32;33583;-69
2022/01/22 03:02:12;;;;;;;2.15;1.30;;;;;;;0.56;52.62;100028.91;4363159;32;33682;-74
2022/01/22 03:04:42;;;;;;;4.35;1.77;;;;;;;0.70;52.14;100037.97;4363122;32;34162;-69
2022/01/22 03:07:09;;;;;;;3.17;1.30;;;;;;;0.85;51.72;100018.53;4363291;32;34069;-69
2022/01/22 03:09:42;;;;;;;3.12;1.50;;;;;;;0.57;52.53;100011.03;4361832;32;33667;-69
2022/01/22 03:12:29;;;;;;;3.10;1.73;;;;;;;1.01;51.34;100008.50;4362866;32;34805;-69
2022/01/22 03:21:06;;;;;;;4.47;1.85;;;;;;;0.87;52.44;100013.84;4362728;32;34506;-75
2022/01/22 03:29:11;;;;;;;3.83;2.05;;;;;;;0.74;53.17;100001.91;4362862;32;34281;-69
2022/01/22 03:31:41;;;;;;;2.92;1.62;;;;;;;1.02;52.80;100004.84;4362861;32;33579;-69
2022/01/22 03:34:09;;;;;;;0.70;0.70;;;;;;;1.04;52.60;100004.69;4361860;32;34757;-75
2022/01/22 03:36:37;;;;;;;2.87;1.37;;;;;;;1.21;52.65;99997.34;4361815;32;34133;-74
2022/01/22 03:39:07;;;;;;;2.42;1.67;;;;;;;1.34;52.32;99994.00;4361522;32;34030;-68
2022/01/22 03:41:35;;;;;;;2.55;2.35;;;;;;;1.13;53.25;99987.56;4362313;32;33688;-69
2022/01/22 03:44:08;;;;;;;3.40;1.90;;;;;;;1.27;53.07;99991.25;4362741;32;33824;-75
2022/01/22 03:46:38;;;;;;;0.50;0.50;;;;;;;1.25;52.86;99993.28;4362672;32;34158;-69
2022/01/22 03:49:05;;;;;;;0.50;0.50;;;;;;;1.35;52.36;99980.47;4362757;32;34121;-69
2022/01/22 03:51:32;;;;;;;2.65;1.48;;;;;;;1.32;52.62;99964.81;4362937;32;34540;-76
2022/01/22 03:54:00;;;;;;;0.40;0.40;;;;;;;1.40;52.53;99969.22;4362557;32;33776;-70
2022/01/22 03:56:28;;;;;;;0.40;0.40;;;;;;;1.20;53.75;99961.75;4362404;32;34263;-73
2022/01/22 03:58:56;;;;;;;0.50;0.50;;;;;;;1.33;53.64;99965.63;4362871;32;34018;-69
2022/01/22 04:04:08;;;;;;;2.67;1.73;;;;;;;0.73;60.12;99962.84;4362847;32;33761;-69
2022/01/22 04:09:08;;;;;;;3.35;1.95;;;;;;;0.87;63.98;99968.44;4362555;32;35017;-76
2022/01/22 04:11:40;;;;;;;5.53;2.20;;;;;;;0.70;65.72;99973.91;4361032;32;33601;-69
2022/01/22 04:14:15;;;;;;;0.62;0.62;;;;;;;0.81;65.68;99968.13;4362194;32;34276;-68
2022/01/22 04:16:57;;;;;;;5.00;2.17;;;;;;;0.86;66.03;99969.44;4362296;32;34144;-69
2022/01/22 04:25:03;;;;;;;3.53;1.87;;;;;;;1.04;66.58;99959.25;4362355;32;33998;-70
2022/01/22 04:27:31;;;;;;;0.60;0.60;;;;;;;0.61;69.12;99957.09;4361166;32;34008;-76
2022/01/22 04:29:59;;;;;;;0.40;0.40;;;;;;;0.69;69.72;99966.06;4362083;32;35071;-73
2022/01/22 04:32:29;;;;;;;3.70;2.30;;;;;;;1.11;68.93;99962.03;4362182;32;34379;-68
2022/01/22 04:34:56;;;;;;;5.82;2.90;;;;;;;0.85;69.88;99959.75;4362467;32;33921;-72
2022/01/22 04:37:24;;;;;;;0.40;0.40;;;;;;;0.78;70.96;99957.00;4361932;32;33901;-71
2022/01/22 04:39:52;;;;;;;4.70;2.45;;;;;;;0.98;71.12;99949.28;4361991;32;34876;-75
2022/01/22 04:42:20;;;;;;;5.55;3.00;;;;;;;0.98;71.09;99950.13;4363473;32;34737;-70
2022/01/22 04:44:58;;;;;;;4.85;3.05;;;;;;;1.10;70.91;99944.31;4363707;32;33813;-69
2022/01/22 04:52:44;;;;;;;4.72;3.25;;;;;;;0.91;72.56;99929.66;4362796;32;34373;-68
2022/01/22 04:55:13;;;;;;;5.22;2.90;;;;;;;0.93;73.18;99928.47;4363858;32;34668;-70
2022/01/22 04:57:46;;;;;;;0.50;0.50;;;;;;;1.05;72.86;99939.53;4364041;32;34740;-69
2022/01/22 05:00:16;;;;;;;5.62;2.90;;;;;;;1.07;73.09;99931.34;4364027;32;34213;-69
2022/01/22 05:02:45;;;;;;;0.40;0.40;;;;;;;1.24;72.19;99930.16;4362883;32;33739;-69
2022/01/22 05:05:14;;;;;;;4.93;3.10;;;;;;;1.56;71.42;99931.63;4363686;32;33568;-70
2022/01/22 05:07:42;;;;;;;6.12;3.37;;;;;;;1.27;72.26;99934.28;4362463;32;33977;-69
2022/01/22 05:10:10;;;;;;;4.82;3.20;;;;;;;1.61;70.72;99931.87;4363790;32;34177;-69
2022/01/22 05:12:37;;;;;;;6.15;3.33;;;;;;;1.46;71.26;99936.41;4363738;32;34483;-68
2022/01/22 05:15:06;;;;;;;0.57;0.57;;;;;;;2.02;69.78;99935.88;4363787;32;33595;-69
2022/01/22 05:17:37;;;;;;;5.32;3.17;;;;;;;1.73;70.94;99936.75;4363950;32;34968;-75
2022/01/22 05:20:13;;;;;;;5.53;3.05;;;;;;;1.78;69.69;99934.38;4362850;32;34593;-70
2022/01/22 05:25:16;;;;;;;0.40;0.40;;;;;;;1.94;69.87;99944.00;4363920;32;33895;-69
2022/01/22 05:28:03;;;;;;;;;;;;;;;1.95;70.32;99937.66;4359375;32;35168;-67
2022/01/22 05:33:30;;;;;;;6.50;3.58;;;;;;;2.05;69.76;99941.69;4348936;33;33274;-71
2022/01/22 05:38:45;;;;;;;0.65;0.60;;;;;;;1.96;70.14;99942.81;4348018;33;33780;-71
2022/01/22 05:41:13;;;;;;;6.40;3.50;;;;;;;2.00;70.16;99938.72;4347635;33;34305;-70
2022/01/22 05:43:42;;;;;;;6.72;4.40;;;;;;;1.89;70.51;99941.09;4348506;33;33271;-73
2022/01/22 05:46:09;;;;;;;6.07;3.97;;;;;;;1.99;70.25;99933.59;4348427;33;34152;-71
2022/01/22 05:48:37;;;;;;;8.05;4.55;;;;;;;1.64;71.34;99926.19;4348874;33;34185;-69
2022/01/22 05:51:05;;;;;;;0.50;0.50;;;;;;;1.61;72.25;99928.38;4347638;33;34951;-69
2022/01/22 05:54:32;;;;;;;8.00;4.07;;;;;;;2.30;70.17;99922.59;4348649;33;34482;-70
2022/01/22 06:01:57;;;;;;;7.18;4.25;;;;;;;1.47;72.94;99930.06;4358896;32;33992;-69
2022/01/22 06:04:25;;;;;;;7.12;4.50;;;;;;;1.91;72.08;99933.69;4369684;32;34500;-70
2022/01/22 06:06:53;;;;;;;7.97;4.60;;;;;;;1.55;73.02;99945.16;4368981;32;33553;-73
2022/01/22 06:09:20;;;;;;;0.60;0.60;;;;;;;1.63;72.96;99942.41;4370362;32;34226;-72
2022/01/22 06:14:25;;;;;;;0.50;0.50;;;;;;;1.91;72.05;99941.72;4372367;32;33424;-73
2022/01/22 06:16:52;;;;;;;9.00;4.60;;;;;;;2.10;71.28;99945.66;4363419;32;34755;-69
2022/01/22 06:19:21;;;;;;;6.87;3.67;;;;;;;1.66;73.00;99941.19;4363311;32;34075;-72
2022/01/22 06:21:51;;;;;;;6.65;4.40;;;;;;;2.04;71.96;99937.34;4362976;32;34928;-68
2022/01/22 06:24:22;;;;;;;0.70;0.70;;;;;;;2.08;71.40;99950.38;4363128;32;33503;-68
2022/01/22 06:26:50;;;;;;;4.80;2.90;;;;;;;2.22;71.00;99952.97;4361919;32;33772;-69
2022/01/22 06:29:18;;;;;;;5.00;3.00;;;;;;;2.32;70.29;99955.34;4361067;32;35135;-76
2022/01/22 06:31:46;;;;;;;4.60;3.05;;;;;;;1.78;72.29;99948.56;4357389;32;35015;-69
2022/01/22 06:34:13;;;;;;;0.50;0.50;;;;;;;1.09;75.56;99961.38;4362949;32;33667;-68
2022/01/22 06:36:40;;;;;;;5.72;5.35;;;;;;;1.78;72.60;99959.25;4363443;32;33917;-68
2022/01/22 06:39:17;;;;;;;6.35;3.50;;;;;;;2.24;70.69;99961.66;4362801;32;33813;-66
2022/01/22 06:41:47;;;;;;;0.52;0.50;;;;;;;2.01;71.58;99974.38;4363421;32;34335;-69
2022/01/22 06:44:24;;;;;;;6.65;3.70;;;;;;;2.05;71.17;99973.81;4363104;32;32182;-69
2022/01/22 06:46:54;;;;;;;7.95;3.95;;;;;;;1.47;73.26;99982.69;4362891;32;33667;-70
2022/01/22 06:49:27;;;;;;;8.30;4.40;;;;;;;1.71;72.23;99974.41;4361488;32;32553;-69
2022/01/22 06:51:59;;;;;;;16.52;6.85;;;;;;;1.62;72.83;99970.16;4361819;32;34197;-79
2022/01/22 06:54:27;;;;;;;1.05;0.85;;;;;;;1.54;72.94;99976.44;4362874;32;33913;-68
2022/01/22 06:56:54;;;;;;;12.70;6.10;;;;;;;1.88;72.06;99964.34;4363225;32;33748;-69
2022/01/22 06:59:21;;;;;;;11.90;6.12;;;;;;;1.45;72.88;99964.19;4360324;32;34289;-69
2022/01/22 07:01:54;;;;;;;10.43;5.95;;;;;;;1.41;73.33;99965.56;4347940;33;34295;-76
2022/01/22 07:04:22;;;;;;;8.93;5.28;;;;;;;1.34;73.20;99962.78;4348408;33;33724;-69
2022/01/22 07:06:50;;;;;;;9.63;5.03;;;;;;;1.50;72.71;99963.63;4348298;33;34013;-83
2022/01/22 07:09:17;;;;;;;7.12;3.97;;;;;;;1.56;72.49;99970.91;4348151;33;34158;-70
2022/01/22 07:11:45;;;;;;;8.75;4.22;;;;;;;1.29;72.89;99981.19;4348199;33;34444;-80
2022/01/22 07:14:16;;;;;;;0.50;0.50;;;;;;;1.12;73.76;99983.19;4348184;33;33689;-74
2022/01/22 07:16:45;;;;;;;6.28;3.58;;;;;;;1.29;73.47;99991.06;4348396;33;33876;-77
2022/01/22 07:19:18;;;;;;;0.55;0.55;;;;;;;1.52;72.49;99997.19;4348223;33;34989;-78
2022/01/22 07:22:02;;;;;;;5.32;3.25;;;;;;;1.36;73.53;100006.22;4348177;33;34725;-77
2022/01/22 07:24:37;;;;;;;5.62;3.80;;;;;;;2.17;70.86;100011.62;4336481;33;33659;-70
2022/01/22 07:27:05;;;;;;;4.45;3.05;;;;;;;2.24;70.17;100003.66;4348254;33;33744;-69
2022/01/22 07:29:33;;;;;;;5.95;3.67;;;;;;;2.42;69.16;100013.97;4348202;33;35117;-72
2022/01/22 07:32:02;;;;;;;5.53;3.33;;;;;;;2.17;69.83;100026.84;4347823;33;34173;-72
2022/01/22 07:34:30;;;;;;;6.03;3.37;;;;;;;2.15;70.14;100027.03;4347885;33;34570;-72
2022/01/22 07:37:02;;;;;;;5.03;3.17;;;;;;;2.43;69.06;100019.13;4346121;33;34052;-71
2022/01/22 07:39:30;;;;;;;5.43;3.50;;;;;;;2.55;68.24;100026.66;4346662;33;33909;-72
2022/01/22 07:41:59;;;;;;;6.45;3.72;;;;;;;2.87;66.83;100014.59;4342449;33;35330;-71
2022/01/22 07:44:28;;;;;;;6.68;3.58;;;;;;;3.01;66.59;100007.53;4346673;32;34175;-71
2022/01/22 07:46:56;;;;;;;13.35;7.05;;;;;;;2.67;67.25;100011.75;4361575;32;33968;-70
2022/01/22 07:49:23;;;;;;;16.02;8.55;;;;;;;2.80;66.55;100003.84;4360450;32;34256;-73
2022/01/22 07:51:51;;;;;;;20.33;9.77;;;;;;;2.75;66.79;100010.81;4361295;32;34981;-72
2022/01/22 07:54:21;;;;;;;2.05;1.33;;;;;;;2.31;68.63;100017.97;4360235;32;33842;-70
2022/01/22 07:56:49;;;;;;;15.80;8.10;;;;;;;2.19;69.98;100006.09;4360995;32;34851;-70
2022/01/22 07:59:17;;;;;;;3.10;1.35;;;;;;;2.05;69.49;100003.25;4361156;32;33550;-71
2022/01/22 08:01:45;;;;;;;8.10;4.80;;;;;;;2.33;68.53;100005.19;4361576;32;34204;-70
2022/01/22 08:04:23;;;;;;;7.10;4.07;;;;;;;2.37;69.28;100000.31;4361520;32;33327;-66
2022/01/22 08:06:57;;;;;;;0.40;0.40;;;;;;;2.25;69.53;99997.31;4359980;32;32254;-69
2022/01/22 08:09:29;;;;;;;6.20;3.97;;;;;;;2.57;68.15;100005.88;4360808;32;32688;-68
2022/01/22 08:11:57;;;;;;;0.60;0.60;;;;;;;2.44;68.61;99995.84;4360293;32;33982;-68
2022/01/22 08:14:24;;;;;;;8.63;4.50;;;;;;;2.49;68.97;100006.84;4360219;32;33158;-66
2022/01/22 08:16:52;;;;;;;0.57;0.57;;;;;;;2.54;69.19;100004.41;4361033;32;34797;-67
2022/01/22 08:19:19;;;;;;;1.05;1.02;;;;;;;2.59;68.69;99995.78;4361160;32;34237;-66
2022/01/22 08:21:47;;;;;;;5.60;3.92;;;;;;;2.70;68.25;99998.00;4361118;32;34199;-66
2022/01/22 08:24:25;;;;;;;5.22;3.37;;;;;;;2.79;67.70;100004.88;4360794;32;33029;-65
2022/01/22 08:27:35;;;;;;;0.90;0.73;;;;;;;2.10;70.68;100015.25;4359962;32;33854;-67
2022/01/22 08:29:50;;;;;;;4.57;3.12;;;;;;;2.42;69.65;100017.47;4360321;32;34076;-67
2022/01/22 08:32:57;;;;;;;4.75;3.00;;;;;;;2.12;70.47;100014.03;4361229;32;34173;-67
2022/01/22 08:38:04;;;;;;;5.03;3.17;;;;;;;2.40;68.37;100030.22;4361096;32;34802;-71
2022/01/22 08:40:32;;;;;;;5.22;3.70;;;;;;;2.76;68.71;100047.28;4360398;32;33920;-69
2022/01/22 08:43:00;;;;;;;5.25;3.35;;;;;;;3.42;66.68;100058.59;4361001;32;34292;-66
2022/01/22 08:45:28;;;;;;;5.40;3.22;;;;;;;3.79;64.90;100059.28;4360771;32;34376;-68
2022/01/22 08:47:57;;;;;;;5.05;3.47;;;;;;;4.46;63.27;100070.34;4360876;32;34118;-68
2022/01/22 08:50:25;;;;;;;0.40;0.40;;;;;;;5.09;60.65;100065.53;4360629;32;34251;-70
2022/01/22 08:52:53;;;;;;;5.18;2.92;;;;;;;5.18;60.40;100059.97;4360713;32;34060;-68
2022/01/22 08:55:21;;;;;;;6.18;3.53;;;;;;;5.95;58.18;100062.00;4360291;32;33754;-67
2022/01/22 08:57:51;;;;;;;5.75;3.40;;;;;;;6.67;55.89;100055.72;4361167;32;34624;-69
2022/01/22 09:00:20;;;;;;;6.72;3.90;;;;;;;7.27;53.36;100058.88;4361631;32;34044;-69
2022/01/22 09:02:49;;;;;;;7.25;4.07;;;;;;;7.15;53.29;100066.03;4361717;32;34303;-70
2022/01/22 09:05:17;;;;;;;6.87;3.47;;;;;;;7.13;52.57;100068.94;4361830;32;33374;-74
2022/01/22 09:07:45;;;;;;;4.72;2.92;;;;;;;7.43;52.64;100070.16;4361680;32;33733;-73
2022/01/22 09:10:13;;;;;;;4.05;2.78;;;;;;;8.28;50.35;100078.47;4361885;32;34087;-71
2022/01/22 09:12:42;;;;;;;4.60;2.58;;;;;;;8.55;49.42;100070.06;4361388;32;33731;-70
2022/01/22 09:15:10;;;;;;;4.80;2.62;;;;;;;8.12;48.43;100071.81;4361220;32;33797;-71
2022/01/22 09:17:39;;;;;;;4.87;2.50;;;;;;;7.10;51.10;100085.56;4361837;32;34287;-72
2022/01/22 09:20:13;;;;;;;4.50;2.80;;;;;;;8.10;49.54;100095.53;4361576;32;33711;-71
2022/01/22 09:22:41;;;;;;;5.30;2.55;;;;;;;8.43;48.17;100101.66;4361726;32;33928;-73
2022/01/22 09:25:14;;;;;;;3.08;2.30;;;;;;;7.86;49.07;100108.03;4362225;32;33678;-71
2022/01/22 09:27:42;;;;;;;3.05;2.20;;;;;;;7.90;48.14;100103.00;4359202;32;34851;-70
2022/01/22 09:30:10;;;;;;;5.20;2.80;;;;;;;6.68;51.04;100109.44;4349120;33;34964;-70
2022/01/22 09:32:38;;;;;;;5.87;2.83;;;;;;;6.83;50.30;100111.06;4357970;32;35259;-69
2022/01/22 09:35:06;;;;;;;5.03;3.00;;;;;;;7.46;50.19;100118.34;4363265;32;33754;-68
2022/01/22 09:37:34;;;;;;;3.80;2.72;;;;;;;7.87;48.85;100109.66;4362938;32;33878;-69
2022/01/22 09:40:03;;;;;;;20.40;15.85;;;;;;;8.40;47.74;100119.97;4363802;32;34070;-73
2022/01/22 09:42:31;;;;;;;9.00;4.80;;;;;;;7.86;48.90;100112.59;4363191;32;33876;-72
2022/01/22 09:44:59;;;;;;;6.45;4.72;;;;;;;7.64;49.08;100128.34;4363188;32;33521;-70
2022/01/22 09:47:27;;;;;;;5.37;3.53;;;;;;;8.14;49.07;100128.31;4349466;32;33953;-73
2022/01/22 09:50:01;;;;;;;5.57;4.03;;;;;;;7.81;47.49;100116.78;4335088;33;34019;-69
2022/01/22 09:52:29;;;;;;;4.70;3.10;;;;;;;7.48;49.58;100125.16;4335665;33;34198;-69
2022/01/22 09:54:57;;;;;;;6.25;3.53;;;;;;;7.75;48.64;100120.38;4348768;33;33592;-72
2022/01/22 09:57:26;;;;;;;5.00;3.10;;;;;;;6.70;50.90;100125.44;4348844;33;34618;-68
2022/01/22 09:59:54;;;;;;;5.32;3.17;;;;;;;5.77;52.97;100121.06;4348845;33;34961;-71
2022/01/22 10:02:22;;;;;;;5.03;3.17;;;;;;;6.45;52.33;100122.59;4348531;33;34100;-69
2022/01/22 10:04:52;;;;;;;6.93;4.07;;;;;;;6.58;51.18;100122.56;4348692;33;33662;-69
2022/01/22 10:07:22;;;;;;;6.75;2.97;;;;;;;6.63;53.03;100124.59;4348400;33;34020;-68
2022/01/22 10:09:54;;;;;;;7.35;4.95;;;;;;;5.19;53.86;100123.50;4348548;33;34199;-70
2022/01/22 10:12:23;;;;;;;6.05;4.22;;;;;;;6.35;52.90;100128.44;4348385;33;34914;-77
2022/01/22 10:15:11;;;;;;;6.00;4.15;;;;;;;7.26;50.65;100122.00;4348591;33;34446;-74
2022/01/22 10:17:52;;;;;;;4.97;3.08;;;;;;;6.21;52.03;100130.34;4348459;33;34065;-73
2022/01/22 10:20:27;;;;;;;5.12;2.97;;;;;;;6.63;52.49;100133.53;4348230;33;35306;-70
2022/01/22 10:23:00;;;;;;;5.25;3.53;;;;;;;6.22;52.46;100132.00;4348564;33;34629;-70
2022/01/22 10:25:33;;;;;;;6.20;3.60;;;;;;;6.01;52.61;100133.06;4335377;33;33779;-71
2022/01/22 10:28:06;;;;;;;5.03;3.03;;;;;;;5.22;53.21;100134.66;4348664;33;33921;-69
2022/01/22 10:30:40;;;;;;;5.90;3.72;;;;;;;6.13;52.34;100139.50;4348436;33;34250;-69
2022/01/22 10:33:42;;;;;;;5.80;3.55;;;;;;;5.99;52.90;100142.41;4349853;32;33959;-68
2022/01/22 10:36:20;;;;;;;5.62;3.28;;;;;;;6.61;51.40;100145.56;4362829;32;33360;-72
2022/01/22 10:38:53;;;;;;;6.28;3.47;;;;;;;6.03;52.91;100147.16;4347788;32;34902;-71
2022/01/22 10:41:36;;;;;;;5.20;3.15;;;;;;;5.92;52.92;100151.28;4348068;33;34297;-73
2022/01/22 10:44:05;;;;;;;6.18;3.50;;;;;;;5.12;53.24;100142.31;4347923;33;34219;-72
2022/01/22 10:47:02;;;;;;;7.37;3.62;;;;;;;5.13;53.93;100143.97;4360948;32;34428;-72
2022/01/22 10:49:30;;;;;;;4.65;3.05;;;;;;;5.65;52.11;100149.63;4362397;32;33624;-73
2022/01/22 10:51:59;;;;;;;6.18;3.78;;;;;;;5.79;52.25;100151.28;4361834;32;34310;-72
2022/01/22 10:54:29;;;;;;;9.27;4.07;;;;;;;4.90;53.74;100153.22;4363092;32;33842;-73
2022/01/22 10:57:11;;;;;;;6.35;3.97;;;;;;;5.15;52.66;100158.03;4363125;32;33505;-73
2022/01/22 10:59:55;;;;;;;5.47;3.55;;;;;;;5.01;52.75;100150.97;4363123;32;34652;-73
2022/01/22 11:02:36;;;;;;;5.97;3.50;;;;;;;5.59;50.84;100172.81;4362829;32;35033;-73
2022/01/22 11:05:05;;;;;;;6.60;3.30;;;;;;;5.16;52.63;100177.69;4363103;32;34148;-73
2022/01/22 11:07:32;;;;;;;5.45;3.12;;;;;;;6.13;51.11;100179.03;4363256;32;34447;-73
2022/01/22 11:10:06;;;;;;;5.25;3.10;;;;;;;4.77;52.70;100180.03;4363162;32;33708;-74
2022/01/22 11:12:34;;;;;;;4.40;3.03;;;;;;;5.78;50.06;100186.50;4362034;32;33627;-72
2022/01/22 11:15:01;;;;;;;5.95;3.05;;;;;;;5.53;51.79;100179.03;4362927;32;34220;-73
2022/01/22 11:17:32;;;;;;;5.07;2.87;;;;;;;5.03;51.07;100184.72;4361868;32;33698;-72
2022/01/22 11:20:00;;;;;;;4.28;2.62;;;;;;;5.07;49.72;100188.63;4363162;32;34005;-71
2022/01/22 11:22:28;;;;;;;3.62;2.40;;;;;;;5.55;49.69;100193.94;4361450;32;34833;-72
2022/01/22 11:24:57;;;;;;;4.90;2.92;;;;;;;4.51;51.81;100196.84;4361713;32;33844;-72
2022/01/22 11:27:25;;;;;;;5.10;2.90;;;;;;;5.22;51.80;100198.41;4362962;32;33616;-74
2022/01/22 11:30:04;;;;;;;4.50;2.67;;;;;;;5.00;50.79;100203.09;4361480;32;34603;-73
2022/01/22 11:32:44;;;;;;;4.82;2.87;;;;;;;5.20;50.14;100203.16;4361694;32;34251;-73
2022/01/22 11:35:13;;;;;;;5.85;3.05;;;;;;;5.68;49.18;100205.72;4361538;32;34268;-72
2022/01/22 11:37:46;;;;;;;3.50;2.40;;;;;;;5.90;50.21;100203.69;4361758;32;33544;-73
2022/01/22 11:40:15;;;;;;;2.55;1.98;;;;;;;5.29;48.34;100204.62;4361437;32;34545;-72
2022/01/22 11:45:39;;;;;;;5.80;2.40;;;;;;;5.81;46.67;100208.47;4362307;32;34879;-72
2022/01/22 11:48:16;;;;;;;3.37;1.95;;;;;;;5.27;46.94;100214.75;4361642;32;34522;-71
2022/01/22 11:50:50;;;;;;;3.90;1.90;;;;;;;4.94;49.47;100220.84;4362389;32;34775;-69
2022/01/22 11:53:24;;;;;;;3.53;2.25;;;;;;;4.99;49.19;100220.25;4361609;32;35026;-77
2022/01/22 11:56:07;;;;;;;;;;;;;;;4.75;47.78;100210.84;4362845;32;33807;-68
2022/01/22 11:59:06;;;;;;;5.60;2.55;;;;;;;4.08;51.19;100215.78;4362737;32;33453;-77
2022/01/22 12:01:50;;;;;;;3.22;1.92;;;;;;;4.29;50.20;100223.78;4359443;32;33770;-69
2022/01/22 12:04:27;;;;;;;3.42;1.98;;;;;;;4.05;47.41;100224.25;4362572;32;34904;-69
2022/01/22 12:07:00;;;;;;;3.20;1.92;;;;;;;4.21;47.89;100229.34;4361531;32;33980;-69
2022/01/22 12:09:31;;;;;;;2.90;1.80;;;;;;;4.91;49.16;100243.59;4362553;32;33438;-69
2022/01/22 12:15:12;;;;;;;4.90;2.20;;;;;;;5.31;46.93;100234.84;4361932;32;34072;-77
2022/01/22 12:17:49;;;;;;;3.42;2.00;;;;;;;5.70;44.65;100242.22;4362247;32;35098;-73
2022/01/22 12:23:13;;;;;;;3.33;2.37;;;;;;;6.29;42.48;100237.09;4362555;32;33813;-77
2022/01/22 12:25:40;;;;;;;3.33;2.20;;;;;;;6.53;42.12;100230.19;4362056;32;34378;-76
2022/01/22 12:28:09;;;;;;;3.17;2.15;;;;;;;6.90;43.58;100239.44;4362495;32;35067;-77
2022/01/22 12:30:38;;;;;;;2.95;1.90;;;;;;;6.19;43.41;100225.88;4362293;32;33164;-71
2022/01/22 12:33:09;;;;;;;2.87;2.05;;;;;;;6.52;44.24;100233.91;4361864;32;34121;-71
2022/01/22 12:35:37;;;;;;;3.67;1.90;;;;;;;5.16;42.57;100240.37;4362035;32;34069;-70
2022/01/22 12:38:30;;;;;;;3.85;1.90;;;;;;;4.52;44.76;100234.28;4361994;32;34036;-74
2022/01/22 12:44:31;;;;;;;3.95;2.00;;;;;;;4.98;46.77;100218.59;4346870;33;34117;-69
2022/01/22 12:47:05;;;;;;;2.70;1.90;;;;;;;4.74;48.48;100226.16;4345104;33;33989;-71
2022/01/22 12:49:36;;;;;;;2.62;1.90;;;;;;;4.60;45.88;100240.53;4346975;33;34093;-71
2022/01/22 12:52:13;;;;;;;4.05;2.47;;;;;;;4.09;46.07;100220.97;4346768;33;33593;-68
2022/01/22 12:54:45;;;;;;;4.05;2.00;;;;;;;4.55;46.87;100229.56;4347176;33;33971;-68
2022/01/22 12:57:20;;;;;;;3.42;1.77;;;;;;;4.36;46.58;100229.22;4346381;33;33976;-71
2022/01/22 12:59:49;;;;;;;3.05;1.85;;;;;;;3.79;45.38;100241.78;4347342;33;34265;-74
2022/01/22 13:02:23;;;;;;;3.75;2.28;;;;;;;3.84;45.83;100249.25;4355539;32;33750;-67
2022/01/22 13:04:58;;;;;;;2.78;1.80;;;;;;;3.72;46.81;100261.53;4363719;32;34843;-69
2022/01/22 13:07:27;;;;;;;;;;;;;;;4.66;45.68;100258.56;4364259;32;34311;-72
2022/01/22 13:10:05;;;;;;;3.10;1.90;;;;;;;4.75;45.91;100253.84;4363799;32;32932;-69
2022/01/22 13:12:44;;;;;;;4.93;2.25;;;;;;;4.01;46.77;100253.31;4363988;32;33678;-71
2022/01/22 13:15:16;;;;;;;6.62;2.97;;;;;;;4.51;44.68;100250.59;4363202;32;34599;-69
2022/01/22 13:17:52;;;;;;;3.50;1.90;;;;;;;4.28;44.44;100256.25;4363367;32;34318;-71
2022/01/22 13:20:21;;;;;;;2.97;1.60;;;;;;;3.97;44.21;100256.59;4363469;32;34818;-76